Pilar Observatorio, Argentina

11:51 PM ART on July 25, 2016 (GMT -0300)
Ferreyra | | Change Station

Elev 1335 ft 31.45 °S, 64.12 °W | Updated 1 minute ago

Mostly Cloudy
Mostly Cloudy
48.3 °F
Feels Like 48 °F
N
1.0
Wind Variable Wind from SE
Gusts 2.0 mph

Today
High -- | Low -- °F
--% Chance of Precip.
Yesterday
High -- | Low -- °F
Precip. -- in
Pressure 30.15 in
Visibility 6.2 miles
Clouds Scattered Clouds 800 ft
Mostly Cloudy 1200 ft
Windchill 48 °F
Dew Point 37 °F
Humidity 64%
Rainfall in
Snow Depth Not available.
8:08 AM 6:36 PM
Waning Gibbous, 60% visible
METAR SACO 260200Z 20008KT 9999 SCT008 BKN012 10/07 Q1021
Pressure 30.15 in
Visibility 6.2 miles
Clouds Scattered Clouds 800 ft
Mostly Cloudy 1200 ft
Windchill 48 °F
Dew Point 37 °F
Humidity 64%
Rainfall in
Snow Depth Not available.
8:08 AM 6:36 PM
Waning Gibbous, 60% visible
METAR SACO 260200Z 20008KT 9999 SCT008 BKN012 10/07 Q1021

10-Day Weather Forecast

No radar image for this location.
×

Almanac

Astronomy

Jul. 25, 2016 Rise Set
Actual Time
Civil Twilight
Nautical Twilight
Astronomical Twilight
Moon
Length of Visible Light
Length of Day
Tomorrow will be .
, % of the Moon is Illuminated

Today's Extremes

Country Highs Country Lows

Community

WunderPhotos

Upload Photos

1,927,505 photos uploaded!

WunderBlog® & News

Nearby

Air Quality

  Air Quality AQ Index Pollutant
Not available.

Snow Depth

Station Depth Elevation

Earthquake Activity

City Distance Mag. Time & Date
Minimum magnitude displayed is 2.5.

Coastal Water Temperatures

Place Temperature

Stations

Nearby Weather Stations

Station Location Temp. Windchill Dew Point Humidity Wind Precip. Elev Updated Type